Time;durP1;ratioP1;P1;durP2;ratioP2;P2;SDS_P1;SDS_P2;PMS_P1;PMS_P2;Temp;Humidity;BMP_temperature;BMP_pressure;BME280_temperature;BME280_humidity;BME280_pressure;Samples;Min_cycle;Max_cycle;Signal;HPM_P1;HPM_P2
2021/04/14 00:00:52;;;;;;;1.77;1.50;;;2.80;69.00;;;;;;5007711;28;21013;-85
2021/04/14 00:03:32;;;;;;;1.70;1.60;;;2.70;68.70;;;;;;5004378;28;20220;-85
2021/04/14 00:05:58;;;;;;;1.50;1.50;;;2.70;69.20;;;;;;5003660;28;20211;-84
2021/04/14 00:08:27;;;;;;;2.43;1.80;;;2.70;68.90;;;;;;5002217;28;20195;-84
2021/04/14 00:10:53;;;;;;;2.10;1.87;;;2.70;69.20;;;;;;5006088;28;20227;-85
2021/04/14 00:13:22;;;;;;;2.27;1.40;;;2.60;69.80;;;;;;5008849;28;20216;-84
2021/04/14 00:15:51;;;;;;;5.00;2.07;;;2.70;70.40;;;;;;5000826;28;20693;-84
2021/04/14 00:18:18;;;;;;;2.20;2.00;;;2.60;71.00;;;;;;4996905;28;20232;-85
2021/04/14 00:20:45;;;;;;;1.80;1.67;;;2.60;71.40;;;;;;5003777;28;20199;-84
2021/04/14 00:23:11;;;;;;;1.80;1.70;;;2.50;71.50;;;;;;5003464;28;20227;-84
2021/04/14 00:25:42;;;;;;;2.03;1.90;;;2.40;71.50;;;;;;5003356;28;20301;-84
2021/04/14 00:28:08;;;;;;;2.60;2.10;;;2.40;71.90;;;;;;5000883;28;20224;-84
2021/04/14 00:30:33;;;;;;;2.20;2.00;;;2.30;71.80;;;;;;5004092;28;20204;-84
2021/04/14 00:32:59;;;;;;;3.60;2.70;;;2.30;72.60;;;;;;5001496;28;20307;-84
2021/04/14 00:35:26;;;;;;;2.80;2.60;;;2.30;73.20;;;;;;5002604;28;20208;-84
2021/04/14 00:37:52;;;;;;;2.93;2.30;;;2.20;73.10;;;;;;4995693;28;20220;-84
2021/04/14 00:40:26;;;;;;;3.23;2.20;;;2.20;73.00;;;;;;5008694;28;20220;-85
2021/04/14 00:42:54;;;;;;;2.10;1.73;;;2.10;73.10;;;;;;5007811;28;20738;-85
2021/04/14 00:45:20;;;;;;;2.37;2.10;;;2.10;73.40;;;;;;5018801;28;20289;-84
2021/04/14 00:47:46;;;;;;;1.83;1.73;;;2.10;73.20;;;;;;5000984;28;20696;-84
2021/04/14 00:50:15;;;;;;;2.13;1.80;;;2.00;73.30;;;;;;5002531;28;20350;-84
2021/04/14 00:52:41;;;;;;;2.20;1.57;;;2.00;73.00;;;;;;5002404;28;20223;-85
2021/04/14 00:55:09;;;;;;;3.23;2.07;;;2.00;72.80;;;;;;5019263;28;20196;-84
2021/04/14 00:57:35;;;;;;;3.20;1.80;;;2.00;73.20;;;;;;5009053;28;20224;-84
2021/04/14 01:00:03;;;;;;;3.57;2.17;;;2.00;74.00;;;;;;5000491;28;20227;-84
2021/04/14 01:02:28;;;;;;;3.80;2.10;;;1.90;73.80;;;;;;5016036;28;20203;-84
2021/04/14 01:04:54;;;;;;;3.20;2.33;;;1.90;73.80;;;;;;5000323;28;22359;-84
2021/04/14 01:07:21;;;;;;;2.10;1.90;;;1.90;74.30;;;;;;5014878;28;20201;-83
2021/04/14 01:09:47;;;;;;;2.87;1.80;;;2.00;73.90;;;;;;5002146;28;20227;-84
2021/04/14 01:12:12;;;;;;;2.30;1.70;;;2.00;73.10;;;;;;4998125;28;20246;-84
2021/04/14 01:14:38;;;;;;;2.67;1.67;;;2.00;73.50;;;;;;4999072;28;20287;-84
2021/04/14 01:17:05;;;;;;;1.67;1.57;;;2.00;73.50;;;;;;5004277;28;20244;-84
2021/04/14 01:19:31;;;;;;;1.87;1.77;;;2.40;73.60;;;;;;5004803;28;20218;-84
2021/04/14 01:21:56;;;;;;;3.90;1.97;;;2.00;73.40;;;;;;5005331;28;20215;-84
2021/04/14 01:24:22;;;;;;;1.40;1.30;;;2.00;73.20;;;;;;5004311;28;20239;-84
2021/04/14 01:26:49;;;;;;;2.13;1.80;;;2.10;74.20;;;;;;4993993;28;20208;-84
2021/04/14 01:29:14;;;;;;;2.77;1.90;;;2.00;73.90;;;;;;4999188;28;20196;-84
2021/04/14 01:31:41;;;;;;;1.67;1.57;;;2.00;74.40;;;;;;5004556;28;20188;-84
2021/04/14 01:34:10;;;;;;;1.80;1.70;;;2.10;75.00;;;;;;5002463;28;20253;-84
2021/04/14 01:36:35;;;;;;;1.73;1.63;;;2.00;75.90;;;;;;5008428;28;20269;-84
2021/04/14 01:39:04;;;;;;;1.90;1.80;;;2.10;76.20;;;;;;5008009;28;20633;-84
2021/04/14 01:41:30;;;;;;;2.03;1.83;;;2.10;76.50;;;;;;5005557;28;20187;-84
2021/04/14 01:43:55;;;;;;;2.33;2.13;;;2.10;76.40;;;;;;4995420;28;20219;-84
2021/04/14 01:46:21;;;;;;;1.93;1.70;;;2.10;76.00;;;;;;4992782;28;20272;-84
2021/04/14 01:48:46;;;;;;;1.60;1.50;;;2.10;75.80;;;;;;4999070;28;20246;-84
2021/04/14 01:51:14;;;;;;;2.00;1.80;;;2.10;74.70;;;;;;5001794;28;20230;-84
2021/04/14 01:53:40;;;;;;;1.20;1.13;;;2.10;74.50;;;;;;4998137;28;20196;-84
2021/04/14 01:56:06;;;;;;;3.27;1.73;;;2.10;73.90;;;;;;5001882;28;20192;-84
2021/04/14 01:58:32;;;;;;;3.23;1.70;;;2.10;73.70;;;;;;5005596;28;21030;-84
2021/04/14 02:01:05;;;;;;;2.20;1.97;;;2.10;72.00;;;;;;5000388;28;20220;-84
2021/04/14 02:03:34;;;;;;;3.07;1.70;;;2.10;72.50;;;;;;5013434;28;20292;-84
2021/04/14 02:06:00;;;;;;;1.50;1.40;;;2.10;72.80;;;;;;5000637;28;20243;-84
2021/04/14 02:08:26;;;;;;;1.00;1.00;;;2.20;71.30;;;;;;5013011;28;20220;-84
2021/04/14 02:10:52;;;;;;;2.33;2.13;;;2.20;70.10;;;;;;4998554;28;20224;-84
2021/04/14 02:13:21;;;;;;;2.53;1.87;;;2.40;68.80;;;;;;4985447;28;20220;-84
2021/04/14 02:15:49;;;;;;;3.17;1.87;;;2.40;68.90;;;;;;4995978;28;20217;-84
2021/04/14 02:18:15;;;;;;;4.83;1.10;;;2.40;68.90;;;;;;4995348;28;20184;-85
2021/04/14 02:20:40;;;;;;;1.67;1.57;;;2.40;68.70;;;;;;4996126;28;20192;-85
2021/04/14 02:23:23;;;;;;;1.27;1.17;;;2.40;67.80;;;;;;5009513;28;20559;-85
2021/04/14 02:25:49;;;;;;;3.03;1.60;;;2.40;68.30;;;;;;5011081;28;20576;-85
2021/04/14 02:28:16;;;;;;;1.53;1.43;;;2.50;68.00;;;;;;4997916;28;20286;-85
2021/04/14 02:30:42;;;;;;;2.47;1.40;;;3.00;68.40;;;;;;5012485;28;20239;-85
2021/04/14 02:33:09;;;;;;;1.73;1.53;;;2.40;69.00;;;;;;5001294;28;20239;-85
2021/04/14 02:35:35;;;;;;;2.07;1.47;;;2.40;69.10;;;;;;4999348;28;20189;-84
2021/04/14 02:38:03;;;;;;;2.20;1.13;;;2.40;69.70;;;;;;5016296;28;20195;-84
2021/04/14 02:40:28;;;;;;;3.10;1.83;;;2.40;69.80;;;;;;5016849;28;20235;-84
2021/04/14 02:42:54;;;;;;;1.70;1.60;;;2.20;70.40;;;;;;5009129;28;20231;-84
2021/04/14 02:45:23;;;;;;;1.73;1.63;;;2.10;71.00;;;;;;5003912;28;20195;-85
2021/04/14 02:47:50;;;;;;;2.10;2.00;;;2.10;70.90;;;;;;5004432;28;20562;-84
2021/04/14 02:50:16;;;;;;;1.63;1.53;;;2.20;70.40;;;;;;5015670;28;20176;-85
2021/04/14 02:52:42;;;;;;;1.40;1.30;;;2.20;70.10;;;;;;4999853;28;20428;-85
2021/04/14 02:55:10;;;;;;;1.60;1.40;;;2.20;69.40;;;;;;4998605;28;20219;-85
2021/04/14 02:57:35;;;;;;;1.90;1.80;;;2.20;70.00;;;;;;4995821;28;20219;-84
2021/04/14 03:00:03;;;;;;;1.80;1.70;;;2.30;69.90;;;;;;5001743;28;20289;-84
2021/04/14 03:02:29;;;;;;;1.77;1.67;;;2.20;70.70;;;;;;4999455;28;20192;-85
2021/04/14 03:04:54;;;;;;;2.00;1.90;;;2.20;71.40;;;;;;5004856;28;20178;-84
2021/04/14 03:07:20;;;;;;;1.87;1.60;;;2.10;71.90;;;;;;5001504;28;20216;-84
2021/04/14 03:09:46;;;;;;;1.43;1.33;;;2.10;72.70;;;;;;4996074;28;20223;-84
2021/04/14 03:12:12;;;;;;;3.77;2.00;;;2.10;72.20;;;;;;5003517;28;20679;-85
2021/04/14 03:14:38;;;;;;;1.40;1.30;;;2.10;72.40;;;;;;5002975;28;20191;-85
2021/04/14 03:17:03;;;;;;;1.60;1.50;;;2.10;72.90;;;;;;5000879;28;20218;-85
2021/04/14 03:19:29;;;;;;;1.10;1.10;;;2.10;72.20;;;;;;4996528;28;20219;-85
2021/04/14 03:21:55;;;;;;;5.30;2.10;;;2.80;72.00;;;;;;4995741;28;20244;-85
2021/04/14 03:24:20;;;;;;;1.87;1.60;;;2.10;71.50;;;;;;5014521;28;20255;-85
2021/04/14 03:26:46;;;;;;;1.40;1.30;;;;;;;;;;5000213;28;20256;-85
2021/04/14 03:29:12;;;;;;;3.13;1.90;;;2.10;71.40;;;;;;5000263;28;20192;-85
2021/04/14 03:31:38;;;;;;;7.13;1.77;;;2.10;72.30;;;;;;4998901;28;20311;-85
2021/04/14 03:34:04;;;;;;;1.80;1.70;;;2.00;72.20;;;;;;5001140;28;20230;-85
2021/04/14 03:36:29;;;;;;;2.67;1.60;;;2.00;72.80;;;;;;5001132;28;20214;-84
2021/04/14 03:38:55;;;;;;;4.93;2.27;;;2.00;73.60;;;;;;5006076;28;20355;-84
2021/04/14 03:41:21;;;;;;;3.10;2.00;;;2.00;73.50;;;;;;4999882;28;20188;-84
2021/04/14 03:43:49;;;;;;;1.87;1.77;;;1.90;73.80;;;;;;4995753;28;20222;-85
2021/04/14 03:46:16;;;;;;;1.87;1.60;;;1.90;73.80;;;;;;4997825;28;20192;-85
2021/04/14 03:48:42;;;;;;;6.23;1.83;;;1.80;74.20;;;;;;4995802;28;20223;-85
2021/04/14 03:51:08;;;;;;;1.90;1.77;;;1.80;74.20;;;;;;4996943;28;20284;-85
2021/04/14 03:53:37;;;;;;;1.30;1.20;;;1.80;73.70;;;;;;5004974;28;20212;-85
2021/04/14 03:56:09;;;;;;;2.00;1.67;;;1.80;74.20;;;;;;4998985;28;20203;-85
2021/04/14 03:58:37;;;;;;;2.17;1.80;;;1.70;74.10;;;;;;4993454;28;20192;-85
2021/04/14 04:01:07;;;;;;;1.60;1.50;;;1.70;74.40;;;;;;4998672;28;20462;-84
2021/04/14 04:03:33;;;;;;;1.60;1.50;;;1.60;74.80;;;;;;4990492;28;20226;-85
2021/04/14 04:05:59;;;;;;;1.77;1.67;;;1.70;74.10;;;;;;4992482;28;20188;-85
2021/04/14 04:08:24;;;;;;;1.60;1.50;;;1.70;74.10;;;;;;4990811;28;20679;-85
2021/04/14 04:10:50;;;;;;;1.53;1.43;;;1.70;73.30;;;;;;4997891;28;20591;-85
2021/04/14 04:13:17;;;;;;;1.23;1.13;;;1.60;73.10;;;;;;5008809;28;20256;-85
2021/04/14 04:15:43;;;;;;;2.23;1.80;;;1.60;74.00;;;;;;5004874;28;20211;-85
2021/04/14 04:18:08;;;;;;;1.83;1.73;;;1.50;73.40;;;;;;4999575;28;20266;-84
2021/04/14 04:20:35;;;;;;;1.20;1.20;;;1.50;73.90;;;;;;5003299;28;20200;-85
2021/04/14 04:23:02;;;;;;;1.93;1.73;;;1.40;73.30;;;;;;5003985;28;20215;-84
2021/04/14 04:25:29;;;;;;;1.90;1.37;;;1.40;75.00;;;;;;5005721;28;20220;-85
2021/04/14 04:27:55;;;;;;;1.80;1.70;;;1.50;76.20;;;;;;4999414;28;20200;-85
2021/04/14 04:30:22;;;;;;;2.77;1.73;;;1.50;76.80;;;;;;5000613;28;20227;-85
2021/04/14 04:32:48;;;;;;;2.47;1.80;;;;;;;;;;5002499;28;20215;-85
2021/04/14 04:35:14;;;;;;;4.73;2.33;;;1.30;77.20;;;;;;4997044;28;20181;-84
2021/04/14 04:37:40;;;;;;;1.70;1.60;;;;;;;;;;5017121;28;20644;-85
2021/04/14 04:40:07;;;;;;;2.70;1.93;;;1.30;79.50;;;;;;4998073;28;20252;-83
2021/04/14 04:42:33;;;;;;;2.13;1.80;;;1.30;80.40;;;;;;5013469;28;20225;-81
2021/04/14 04:45:00;;;;;;;1.80;1.37;;;1.30;81.10;;;;;;5003336;28;20239;-83
2021/04/14 04:47:26;;;;;;;2.30;2.10;;;1.20;81.00;;;;;;5008795;28;20191;-82
2021/04/14 04:49:52;;;;;;;13.70;2.40;;;1.30;81.60;;;;;;5006192;28;20220;-81
2021/04/14 04:52:18;;;;;;;1.93;1.83;;;1.30;81.30;;;;;;5011202;28;20192;-83
2021/04/14 04:54:44;;;;;;;3.07;2.43;;;;;;;;;;5006782;28;20230;-83
2021/04/14 04:57:10;;;;;;;2.33;2.13;;;;;;;;;;5000154;28;20274;-83
2021/04/14 04:59:36;;;;;;;2.37;1.90;;;;;;;;;;4982485;28;20430;-83
2021/04/14 05:02:02;;;;;;;1.70;1.60;;;1.30;80.70;;;;;;4975448;28;20819;-84
2021/04/14 05:04:29;;;;;;;1.83;1.73;;;1.30;81.10;;;;;;4963351;28;20208;-83
2021/04/14 05:06:54;;;;;;;2.13;2.03;;;1.30;81.20;;;;;;4965196;28;20189;-83
2021/04/14 05:09:21;;;;;;;2.40;2.10;;;1.30;81.10;;;;;;4982904;28;20304;-84
2021/04/14 05:11:47;;;;;;;3.03;1.70;;;1.30;81.10;;;;;;4960325;28;20229;-83
2021/04/14 05:14:13;;;;;;;3.23;2.57;;;1.40;81.90;;;;;;4980861;28;20213;-82
2021/04/14 05:16:39;;;;;;;2.00;1.90;;;1.40;81.20;;;;;;4982419;28;20228;-82
2021/04/14 05:19:05;;;;;;;2.13;2.00;;;1.40;80.90;;;;;;4977759;28;20216;-82
2021/04/14 05:21:36;;;;;;;3.73;2.10;;;1.40;80.80;;;;;;4966135;28;20743;-81
2021/04/14 05:24:03;;;;;;;2.07;1.87;;;1.40;80.50;;;;;;4980268;28;20197;-81
2021/04/14 05:26:28;;;;;;;1.63;1.53;;;1.50;80.20;;;;;;4964041;28;20210;-81
2021/04/14 05:28:54;;;;;;;2.90;2.17;;;1.50;79.30;;;;;;4960814;28;20237;-82
2021/04/14 05:31:20;;;;;;;1.90;1.70;;;1.60;78.50;;;;;;4975760;28;20213;-82
2021/04/14 05:33:45;;;;;;;3.77;1.83;;;1.80;78.00;;;;;;4973964;28;20235;-82
2021/04/14 05:36:12;;;;;;;2.13;1.93;;;1.70;77.00;;;;;;4968287;28;20220;-82
2021/04/14 05:38:38;;;;;;;4.87;2.47;;;2.00;74.40;;;;;;5000536;28;20278;-81
2021/04/14 05:41:04;;;;;;;2.07;1.87;;;2.00;73.90;;;;;;5021884;28;20219;-81
2021/04/14 05:43:35;;;;;;;3.30;2.17;;;2.10;73.40;;;;;;5003827;28;20226;-82
2021/04/14 05:46:04;;;;;;;3.87;2.43;;;2.20;72.70;;;;;;4979394;28;20221;-82
2021/04/14 05:48:30;;;;;;;4.03;2.23;;;3.00;73.10;;;;;;4971942;28;20256;-82
2021/04/14 05:50:59;;;;;;;2.83;2.17;;;2.30;71.80;;;;;;4968771;28;20209;-82
2021/04/14 05:53:26;;;;;;;4.73;2.27;;;2.30;72.20;;;;;;4955706;28;20224;-82
2021/04/14 05:55:54;;;;;;;2.20;2.00;;;2.40;72.40;;;;;;4964767;28;20221;-82
2021/04/14 05:58:20;;;;;;;3.40;2.30;;;;;;;;;;4963525;28;20268;-81
2021/04/14 06:00:47;;;;;;;2.03;1.83;;;;;;;;;;4980533;28;20248;-81
2021/04/14 06:03:13;;;;;;;3.43;2.13;;;;;;;;;;4963274;28;20987;-81
2021/04/14 06:05:39;;;;;;;2.53;1.90;;;2.90;68.30;;;;;;4979858;28;20206;-81
2021/04/14 06:08:05;;;;;;;2.03;1.93;;;3.00;68.10;;;;;;4967386;28;20231;-83
2021/04/14 06:10:30;;;;;;;3.50;2.07;;;3.10;68.30;;;;;;4981331;28;20217;-83
2021/04/14 06:12:56;;;;;;;2.10;2.00;;;;;;;;;;4970927;28;20233;-84
2021/04/14 06:15:27;;;;;;;3.87;2.27;;;3.50;65.80;;;;;;4961901;28;20287;-83
2021/04/14 06:17:53;;;;;;;2.03;1.70;;;3.50;65.80;;;;;;5019389;28;20206;-83
2021/04/14 06:20:21;;;;;;;1.70;1.60;;;3.60;65.20;;;;;;5005112;28;20331;-84
2021/04/14 06:22:47;;;;;;;3.20;2.43;;;3.90;64.70;;;;;;5005311;28;20211;-84
2021/04/14 06:25:17;;;;;;;1.40;1.30;;;4.00;64.00;;;;;;5006950;28;20246;-83
2021/04/14 06:27:54;;;;;;;1.63;1.37;;;4.10;63.60;;;;;;5007092;28;20286;-82
2021/04/14 06:30:37;;;;;;;1.60;1.50;;;4.10;63.50;;;;;;4992935;28;20224;-85
2021/04/14 06:33:06;;;;;;;4.07;1.60;;;4.50;61.40;;;;;;5016764;28;22128;-85
2021/04/14 06:35:32;;;;;;;1.07;1.07;;;4.80;59.40;;;;;;5006334;28;20203;-84
2021/04/14 06:38:00;;;;;;;1.43;1.33;;;4.90;59.50;;;;;;5004726;28;20651;-85
2021/04/14 06:40:45;;;;;;;3.57;1.57;;;4.90;58.60;;;;;;5002164;28;20587;-83
2021/04/14 06:43:20;;;;;;;3.80;1.57;;;4.90;59.50;;;;;;5005021;28;20299;-83
2021/04/14 06:45:57;;;;;;;1.93;1.30;;;5.10;58.60;;;;;;5021026;28;20370;-84
2021/04/14 06:48:44;;;;;;;1.57;1.47;;;5.40;57.20;;;;;;5006716;28;20227;-84
2021/04/14 06:51:49;;;;;;;3.87;1.80;;;5.40;58.40;;;;;;5021869;28;20822;-83
2021/04/14 06:54:44;;;;;;;2.30;1.57;;;5.60;57.40;;;;;;4999005;28;20319;-82
2021/04/14 06:57:20;;;;;;;2.20;1.50;;;5.80;55.90;;;;;;4977056;28;20306;-83
2021/04/14 06:59:52;;;;;;;1.63;1.23;;;5.80;55.90;;;;;;5004668;28;20219;-84
2021/04/14 07:02:53;;;;;;;3.80;1.27;;;5.90;55.00;;;;;;5023314;28;20184;-84
2021/04/14 07:05:27;;;;;;;1.17;1.17;;;5.90;54.70;;;;;;4996475;28;20265;-83
2021/04/14 07:07:55;;;;;;;1.20;1.07;;;5.90;53.80;;;;;;5002689;28;20413;-85
2021/04/14 07:10:23;;;;;;;1.97;1.57;;;6.00;54.70;;;;;;5001835;28;20266;-84
2021/04/14 07:12:50;;;;;;;4.40;1.97;;;;;;;;;;5003854;28;20220;-85
2021/04/14 07:15:18;;;;;;;1.37;1.13;;;6.30;53.90;;;;;;5004175;28;20188;-84
2021/04/14 07:18:02;;;;;;;3.17;1.70;;;6.40;53.70;;;;;;5002098;28;20283;-84
2021/04/14 07:20:49;;;;;;;3.80;1.73;;;6.40;53.90;;;;;;5002714;28;20180;-83
2021/04/14 07:23:58;;;;;;;1.77;1.23;;;6.20;54.40;;;;;;5000413;28;20218;-86
2021/04/14 07:26:32;;;;;;;1.40;1.20;;;6.30;54.80;;;;;;4940057;28;20257;-85
2021/04/14 07:29:21;;;;;;;1.30;1.27;;;6.30;53.60;;;;;;4939182;28;20903;-86
2021/04/14 07:31:57;;;;;;;1.77;1.47;;;6.30;54.20;;;;;;4959018;28;20749;-85
2021/04/14 07:34:46;;;;;;;2.47;1.30;;;6.30;54.20;;;;;;4944063;28;20213;-86
2021/04/14 07:37:25;;;;;;;1.10;1.10;;;6.40;54.60;;;;;;4944602;29;20216;-85
2021/04/14 07:40:11;;;;;;;1.33;1.23;;;6.50;54.10;;;;;;4943412;28;20218;-86
2021/04/14 07:42:51;;;;;;;1.57;1.40;;;6.50;54.40;;;;;;4944073;29;20277;-86
2021/04/14 07:45:26;;;;;;;2.40;1.20;;;6.40;54.10;;;;;;4945582;29;20221;-84
2021/04/14 07:48:05;;;;;;;1.30;0.90;;;6.50;52.90;;;;;;4949419;29;20724;-85
2021/04/14 07:50:49;;;;;;;1.13;0.90;;;6.60;53.00;;;;;;4948263;28;20204;-84
2021/04/14 07:53:19;;;;;;;2.97;1.30;;;6.50;53.60;;;;;;4946380;29;20449;-85
2021/04/14 07:55:45;;;;;;;2.90;1.10;;;6.60;52.30;;;;;;4962184;28;20225;-85
2021/04/14 07:58:22;;;;;;;1.90;1.40;;;6.80;52.30;;;;;;4949810;28;20221;-84
2021/04/14 08:00:48;;;;;;;1.60;1.50;;;7.10;50.60;;;;;;4946564;28;20217;-84
2021/04/14 08:03:30;;;;;;;1.83;1.40;;;7.10;49.60;;;;;;4968653;28;20225;-85
2021/04/14 08:06:11;;;;;;;0.57;0.57;;;7.10;44.80;;;;;;5005447;28;20241;-85
2021/04/14 08:08:39;;;;;;;1.60;0.90;;;7.10;42.80;;;;;;5018358;28;20357;-85
2021/04/14 08:11:25;;;;;;;0.53;0.53;;;7.10;42.50;;;;;;5000975;28;20287;-84
2021/04/14 08:13:51;;;;;;;1.23;0.70;;;7.20;42.90;;;;;;5001597;28;20219;-85
2021/04/14 08:16:35;;;;;;;3.50;1.27;;;9.20;44.40;;;;;;5003556;28;20216;-86
2021/04/14 08:19:22;;;;;;;1.07;1.07;;;7.30;44.00;;;;;;5000643;28;20249;-86
2021/04/14 08:21:59;;;;;;;1.33;1.33;;;7.30;43.40;;;;;;5020937;28;20259;-85
2021/04/14 08:24:54;;;;;;;2.43;0.83;;;7.50;43.00;;;;;;5004120;28;20203;-85
2021/04/14 08:27:33;;;;;;;0.80;0.80;;;7.70;42.80;;;;;;4993741;28;20240;-86
2021/04/14 08:30:10;;;;;;;1.30;0.87;;;7.80;44.10;;;;;;5008303;28;20202;-85
2021/04/14 08:32:42;;;;;;;1.30;0.87;;;7.60;40.90;;;;;;4994717;28;20882;-86
2021/04/14 08:35:33;;;;;;;2.37;0.83;;;7.50;42.90;;;;;;5003626;28;20199;-86
2021/04/14 08:38:16;;;;;;;1.27;0.80;;;7.80;44.20;;;;;;4988360;28;20212;-87
2021/04/14 08:40:42;;;;;;;1.63;1.17;;;;;;;;;;5006172;28;20247;-85
2021/04/14 08:43:12;;;;;;;1.30;0.90;;;8.20;41.50;;;;;;5004173;28;20216;-85
2021/04/14 08:45:44;;;;;;;1.47;1.03;;;7.80;39.60;;;;;;5004581;28;20228;-86
2021/04/14 08:48:21;;;;;;;1.03;0.80;;;7.80;40.70;;;;;;5010209;28;20242;-86
2021/04/14 08:50:53;;;;;;;0.70;0.70;;;7.70;41.40;;;;;;5004733;28;20199;-86
2021/04/14 08:53:27;;;;;;;0.97;0.90;;;7.40;42.40;;;;;;5017610;28;20232;-85
2021/04/14 08:55:53;;;;;;;3.33;1.00;;;;;;;;;;5007291;28;20216;-84
2021/04/14 08:58:20;;;;;;;0.90;0.90;;;7.60;41.20;;;;;;5023638;28;20219;-86
2021/04/14 09:00:47;;;;;;;1.33;1.20;;;7.40;42.10;;;;;;5023198;28;20227;-86
2021/04/14 09:03:18;;;;;;;6.03;1.30;;;7.60;42.40;;;;;;5006324;28;20223;-85
2021/04/14 09:05:45;;;;;;;0.90;0.90;;;7.60;39.70;;;;;;5009793;28;20282;-85
2021/04/14 09:08:17;;;;;;;1.07;1.03;;;7.80;40.90;;;;;;5021680;28;20596;-85
2021/04/14 09:13:29;;;;;;;5.50;1.10;;;8.40;40.20;;;;;;5016254;28;20224;-85
2021/04/14 09:15:58;;;;;;;0.80;0.80;;;8.30;38.90;;;;;;5024184;28;20626;-86
2021/04/14 09:18:39;;;;;;;0.73;0.73;;;8.30;39.80;;;;;;5005062;28;20219;-86
2021/04/14 09:21:11;;;;;;;3.23;1.10;;;8.10;39.60;;;;;;5003043;28;20231;-86
2021/04/14 09:23:40;;;;;;;1.10;1.00;;;8.20;40.40;;;;;;5008048;28;20251;-85
2021/04/14 09:26:39;;;;;;;0.93;0.80;;;8.30;41.10;;;;;;5006210;28;20194;-86
2021/04/14 09:29:23;;;;;;;1.17;1.03;;;8.10;39.50;;;;;;5005982;28;20220;-85
2021/04/14 09:31:52;;;;;;;2.33;0.93;;;8.30;39.80;;;;;;5005511;28;20234;-86
2021/04/14 09:34:37;;;;;;;1.43;1.20;;;8.30;39.10;;;;;;5008626;28;20290;-86
2021/04/14 09:37:20;;;;;;;5.03;1.43;;;8.20;40.20;;;;;;4996476;28;20265;-86
2021/04/14 09:39:49;;;;;;;1.33;1.23;;;8.30;40.70;;;;;;5022332;28;20212;-86
2021/04/14 09:42:23;;;;;;;1.53;1.17;;;8.40;38.40;;;;;;5000979;28;20215;-85
2021/04/14 09:44:57;;;;;;;2.13;0.93;;;8.40;38.80;;;;;;5004770;28;20563;-85
2021/04/14 09:47:26;;;;;;;1.80;1.30;;;8.50;37.40;;;;;;5005424;28;20192;-85
2021/04/14 09:49:53;;;;;;;1.07;1.03;;;8.50;38.40;;;;;;5002106;28;20791;-86
2021/04/14 09:52:22;;;;;;;1.93;1.37;;;8.80;38.10;;;;;;5008328;28;20185;-85
2021/04/14 09:54:50;;;;;;;1.50;1.40;;;9.00;38.40;;;;;;5003910;28;20541;-85
2021/04/14 09:57:19;;;;;;;1.63;1.03;;;9.20;37.60;;;;;;4996520;28;20190;-85
2021/04/14 09:59:45;;;;;;;1.57;1.10;;;8.90;36.40;;;;;;5002455;28;20225;-86
2021/04/14 10:02:23;;;;;;;1.43;1.20;;;9.00;37.40;;;;;;5024703;28;20196;-86
2021/04/14 10:04:51;;;;;;;1.13;1.03;;;9.00;36.00;;;;;;5002961;28;20330;-85
2021/04/14 10:07:27;;;;;;;1.80;1.27;;;9.10;35.20;;;;;;5004053;28;20212;-86
2021/04/14 10:10:11;;;;;;;1.27;1.20;;;9.10;34.50;;;;;;4998431;28;20215;-85
2021/04/14 10:12:37;;;;;;;3.70;1.43;;;8.90;32.90;;;;;;5003427;28;20228;-85
2021/04/14 10:15:05;;;;;;;1.60;1.40;;;9.00;32.90;;;;;;5005373;28;20281;-85
2021/04/14 10:17:32;;;;;;;3.33;0.93;;;9.10;31.20;;;;;;5018206;28;20180;-85
2021/04/14 10:20:10;;;;;;;2.13;1.00;;;9.20;31.00;;;;;;4996342;28;20224;-85
2021/04/14 10:22:48;;;;;;;0.70;0.70;;;9.30;32.20;;;;;;5006255;28;20273;-85
2021/04/14 10:25:17;;;;;;;1.17;1.00;;;8.80;34.50;;;;;;5005236;28;20295;-85
2021/04/14 10:27:43;;;;;;;1.20;0.83;;;8.80;31.30;;;;;;4997288;28;20320;-85
2021/04/14 10:30:11;;;;;;;1.70;1.10;;;8.70;32.00;;;;;;5007805;28;20196;-85
2021/04/14 10:32:37;;;;;;;2.67;1.40;;;8.70;34.30;;;;;;5022371;28;20216;-86
2021/04/14 10:35:10;;;;;;;1.63;1.43;;;8.90;33.70;;;;;;5003506;28;20228;-84
2021/04/14 10:37:45;;;;;;;1.80;1.30;;;8.90;34.00;;;;;;5004448;28;20222;-85
2021/04/14 10:40:19;;;;;;;2.53;2.07;;;9.10;33.90;;;;;;5003137;28;20607;-84
2021/04/14 10:42:49;;;;;;;1.93;1.33;;;9.50;33.30;;;;;;5002038;28;20281;-85
2021/04/14 10:45:16;;;;;;;1.00;0.90;;;9.30;33.50;;;;;;5004742;28;20231;-85
2021/04/14 10:47:44;;;;;;;1.17;1.07;;;9.30;31.70;;;;;;4998807;28;20192;-85
2021/04/14 10:50:27;;;;;;;1.40;1.30;;;9.10;29.90;;;;;;5000000;28;20188;-85
2021/04/14 10:53:01;;;;;;;1.37;1.23;;;8.90;31.00;;;;;;5004225;28;20237;-86
2021/04/14 10:55:32;;;;;;;2.50;1.10;;;8.70;31.60;;;;;;5006487;28;20227;-86
2021/04/14 10:58:04;;;;;;;1.27;1.17;;;8.50;31.20;;;;;;5006021;28;20548;-86
2021/04/14 11:00:34;;;;;;;1.73;0.97;;;8.50;31.60;;;;;;5017243;28;20205;-85
2021/04/14 11:03:05;;;;;;;1.23;1.00;;;8.60;30.80;;;;;;5003692;28;20196;-85
2021/04/14 11:05:34;;;;;;;3.13;1.20;;;8.90;31.90;;;;;;5019392;28;20190;-85
2021/04/14 11:08:00;;;;;;;1.30;0.97;;;9.20;31.10;;;;;;4985607;28;20214;-86
2021/04/14 11:10:33;;;;;;;0.93;0.93;;;9.30;29.40;;;;;;5002764;28;20219;-86
2021/04/14 11:12:59;;;;;;;1.10;1.10;;;9.60;28.60;;;;;;5006094;28;20248;-85
2021/04/14 11:18:42;;;;;;;2.17;1.33;;;9.80;31.00;;;;;;4923543;29;20332;-86
2021/04/14 11:21:30;;;;;;;1.63;1.40;;;9.80;30.00;;;;;;4921652;29;20198;-86
2021/04/14 11:24:18;;;;;;;1.17;1.13;;;9.60;29.90;;;;;;4942106;28;20203;-86
2021/04/14 11:26:51;;;;;;;1.50;1.00;;;9.90;31.10;;;;;;4925300;29;20233;-85
2021/04/14 11:29:22;;;;;;;1.23;1.10;;;10.00;29.50;;;;;;4923337;29;20730;-86
2021/04/14 11:31:50;;;;;;;1.40;1.30;;;9.90;30.20;;;;;;4936327;29;20286;-86
2021/04/14 11:34:29;;;;;;;1.00;1.00;;;9.50;29.00;;;;;;4921209;29;20204;-85
2021/04/14 11:37:03;;;;;;;1.43;1.30;;;9.70;27.10;;;;;;4922370;29;20249;-85
2021/04/14 11:39:49;;;;;;;2.13;1.30;;;10.00;27.40;;;;;;4917092;29;20225;-84
2021/04/14 11:42:21;;;;;;;2.73;1.10;;;12.10;22.40;;;;;;4932581;29;20698;-85
2021/04/14 11:44:58;;;;;;;1.03;0.83;;;12.10;23.00;;;;;;4943602;29;20561;-85
2021/04/14 11:47:35;;;;;;;1.00;0.90;;;13.40;21.20;;;;;;4935895;29;20203;-85
2021/04/14 11:50:32;;;;;;;1.30;1.10;;;14.50;21.10;;;;;;4935838;28;20212;-86
2021/04/14 11:52:59;;;;;;;1.53;0.70;;;14.60;20.90;;;;;;4934477;29;20289;-86
2021/04/14 11:55:37;;;;;;;2.20;1.00;;;15.10;21.50;;;;;;4983892;28;20261;-85
2021/04/14 11:58:20;;;;;;;1.47;1.20;;;13.70;23.40;;;;;;5004655;28;20316;-87
2021/04/14 12:00:46;;;;;;;1.50;1.40;;;12.30;23.90;;;;;;5018189;28;20823;-87
2021/04/14 12:03:33;;;;;;;1.20;1.10;;;11.10;25.60;;;;;;4999729;28;20215;-85
2021/04/14 12:06:00;;;;;;;2.00;1.27;;;10.00;27.00;;;;;;5004482;28;20180;-85
2021/04/14 12:08:27;;;;;;;1.10;1.00;;;9.60;28.60;;;;;;5004423;28;20207;-86
2021/04/14 12:10:54;;;;;;;1.00;0.90;;;9.60;29.00;;;;;;5004346;28;20621;-84
2021/04/14 12:13:23;;;;;;;1.57;1.20;;;9.30;28.50;;;;;;5022079;28;20307;-85
2021/04/14 12:15:50;;;;;;;4.33;1.43;;;9.20;28.40;;;;;;4996394;28;20234;-85
2021/04/14 12:18:17;;;;;;;2.93;1.23;;;9.20;28.80;;;;;;5008258;28;20211;-83
2021/04/14 12:20:43;;;;;;;1.03;0.93;;;9.00;28.50;;;;;;5008301;28;20213;-86
2021/04/14 12:23:08;;;;;;;1.00;1.00;;;8.80;28.30;;;;;;5003708;28;20203;-84
2021/04/14 12:25:34;;;;;;;1.70;1.43;;;8.80;28.60;;;;;;5002819;28;20192;-85
2021/04/14 12:28:37;;;;;;;1.37;1.00;;;9.10;28.30;;;;;;5004188;28;20582;-85
2021/04/14 12:31:03;;;;;;;1.23;1.00;;;9.10;28.80;;;;;;5006789;28;20191;-84
2021/04/14 12:33:29;;;;;;;1.80;1.20;;;9.30;28.90;;;;;;5000973;28;20263;-85
2021/04/14 12:35:54;;;;;;;2.27;1.20;;;9.60;27.10;;;;;;5007779;28;20337;-84
2021/04/14 12:38:20;;;;;;;1.70;0.87;;;9.60;27.30;;;;;;5014886;28;20195;-84
2021/04/14 12:40:46;;;;;;;0.90;0.83;;;;;;;;;;5006393;28;20192;-85
2021/04/14 12:43:12;;;;;;;3.03;1.10;;;11.60;25.30;;;;;;5023810;28;20660;-86
2021/04/14 12:45:46;;;;;;;2.37;0.93;;;13.20;23.50;;;;;;5008618;28;20234;-85
2021/04/14 12:48:15;;;;;;;1.13;1.03;;;14.40;21.20;;;;;;5007738;28;20234;-85
2021/04/14 12:50:59;;;;;;;0.70;0.70;;;15.10;20.20;;;;;;5005962;28;20193;-84
2021/04/14 12:53:25;;;;;;;1.80;0.80;;;15.80;19.30;;;;;;5020725;28;20237;-85
2021/04/14 12:55:51;;;;;;;3.60;1.33;;;15.20;19.10;;;;;;5006613;28;20199;-86
2021/04/14 12:58:29;;;;;;;1.50;1.00;;;17.20;17.20;;;;;;5019641;28;20230;-86
2021/04/14 13:00:54;;;;;;;0.80;0.80;;;17.20;17.40;;;;;;4999493;28;20273;-85
2021/04/14 13:03:26;;;;;;;1.70;0.70;;;16.90;16.80;;;;;;5003268;28;20232;-85
2021/04/14 13:05:58;;;;;;;1.20;1.10;;;14.30;18.50;;;;;;5011046;28;20194;-85
2021/04/14 13:08:30;;;;;;;1.13;1.00;;;14.30;19.10;;;;;;5002993;28;20196;-85
2021/04/14 13:11:10;;;;;;;1.20;1.10;;;13.40;19.90;;;;;;5009866;28;20193;-86
2021/04/14 13:13:35;;;;;;;0.97;0.97;;;13.00;20.40;;;;;;5003691;28;20291;-84
2021/04/14 13:16:43;;;;;;;1.17;1.07;;;12.70;20.80;;;;;;5002668;28;20213;-85
2021/04/14 13:19:09;;;;;;;1.10;1.00;;;12.50;21.40;;;;;;4983846;28;20193;-85
2021/04/14 13:22:08;;;;;;;1.47;1.07;;;12.40;22.50;;;;;;5006316;28;20263;-85
2021/04/14 13:24:42;;;;;;;1.23;1.13;;;11.90;23.00;;;;;;4999806;28;20220;-85